createdAt,value
2022-12-05T00:01:17.609Z,91.43
2022-12-05T00:03:46.163Z,91.53
2022-12-05T00:06:13.845Z,90.81
2022-12-05T00:08:42.885Z,90.12
2022-12-05T00:11:14.359Z,90.52
2022-12-05T00:13:42.604Z,90.46
2022-12-05T00:16:12.620Z,90.56
2022-12-05T00:18:40.887Z,91.37
2022-12-05T00:21:13.464Z,91.70
2022-12-05T00:23:42.643Z,91.16
2022-12-05T00:26:11.641Z,91.39
2022-12-05T00:28:40.317Z,90.84
2022-12-05T00:31:09.859Z,91.20
2022-12-05T00:33:37.855Z,91.25
2022-12-05T00:36:08.004Z,91.08
2022-12-05T00:38:36.381Z,90.69
2022-12-05T00:41:06.048Z,91.68
2022-12-05T00:43:33.979Z,92.47
2022-12-05T00:46:03.565Z,91.99
2022-12-05T00:48:31.670Z,90.81
2022-12-05T00:51:02.980Z,91.49
2022-12-05T00:53:30.817Z,90.40
2022-12-05T00:56:02.346Z,90.31
2022-12-05T00:58:31.708Z,89.91
2022-12-05T01:01:05.854Z,90.55
2022-12-05T01:03:33.525Z,90.41
2022-12-05T01:06:01.337Z,89.78
2022-12-05T01:08:30.348Z,90.58
2022-12-05T01:10:59.241Z,90.75
2022-12-05T01:13:27.765Z,91.38
2022-12-05T01:15:56.705Z,91.95
2022-12-05T01:18:25.693Z,91.33
2022-12-05T01:20:54.719Z,91.48
2022-12-05T01:23:22.801Z,91.02
2022-12-05T01:25:52.573Z,90.86
2022-12-05T01:28:20.204Z,91.39
2022-12-05T01:30:49.429Z,91.27
2022-12-05T01:33:18.884Z,91.60
2022-12-05T01:35:46.509Z,92.35
2022-12-05T01:38:14.234Z,91.74
2022-12-05T01:40:42.389Z,91.74
2022-12-05T01:43:15.535Z,91.11
2022-12-05T01:45:44.712Z,91.38
2022-12-05T01:48:17.558Z,90.56
2022-12-05T01:50:48.496Z,90.36
2022-12-05T01:53:17.130Z,90.82
2022-12-05T01:55:46.419Z,91.42
2022-12-05T01:58:14.606Z,92.20
2022-12-05T02:00:42.651Z,92.39
2022-12-05T02:03:15.890Z,92.31
2022-12-05T02:05:43.758Z,92.94
2022-12-05T02:08:13.025Z,93.11
2022-12-05T02:10:44.108Z,93.12
2022-12-05T02:13:28.247Z,92.00
2022-12-05T02:16:03.126Z,92.53
2022-12-05T02:18:49.861Z,92.25
2022-12-05T02:21:39.126Z,92.07
2022-12-05T02:24:45.077Z,92.24
2022-12-05T02:27:29.835Z,92.29
2022-12-05T02:30:10.842Z,92.45
2022-12-05T02:32:57.954Z,91.96
2022-12-05T02:35:38.592Z,91.65
2022-12-05T02:38:17.000Z,91.62
2022-12-05T02:40:52.679Z,90.76
2022-12-05T02:43:24.446Z,90.63
2022-12-05T02:45:58.575Z,91.43
2022-12-05T02:48:28.984Z,91.97
2022-12-05T02:51:00.427Z,92.45
2022-12-05T02:53:30.302Z,92.48
2022-12-05T02:55:58.962Z,92.53
2022-12-05T02:58:34.911Z,92.87
2022-12-05T03:01:04.801Z,92.00
2022-12-05T03:03:34.331Z,92.38
2022-12-05T03:06:05.923Z,92.01
2022-12-05T03:08:38.030Z,92.11
2022-12-05T03:11:06.363Z,91.75
2022-12-05T03:13:41.292Z,91.08
2022-12-05T03:16:15.060Z,90.90
2022-12-05T03:18:48.154Z,91.12
2022-12-05T03:21:23.357Z,91.63
2022-12-05T03:23:54.913Z,92.51
2022-12-05T03:26:35.162Z,93.15
2022-12-05T03:29:18.985Z,92.43
2022-12-05T03:31:56.473Z,92.45
2022-12-05T03:34:34.846Z,93.08
2022-12-05T03:37:08.091Z,92.30
2022-12-05T03:39:40.102Z,92.18
2022-12-05T03:42:13.335Z,91.43
2022-12-05T03:44:48.606Z,90.43
2022-12-05T03:47:22.076Z,91.23
2022-12-05T03:49:53.778Z,90.58
2022-12-05T03:52:25.329Z,90.73
2022-12-05T03:54:56.988Z,89.93
2022-12-05T03:57:28.694Z,89.98
2022-12-05T04:00:00.403Z,89.54
2022-12-05T04:02:34.548Z,89.32
2022-12-05T04:05:07.935Z,89.60
2022-12-05T04:07:39.418Z,90.01
2022-12-05T04:10:11.106Z,89.95
2022-12-05T04:12:42.765Z,90.65
2022-12-05T04:15:15.835Z,90.48
2022-12-05T04:17:53.804Z,89.68
2022-12-05T04:20:45.524Z,88.94
2022-12-05T04:23:13.363Z,90.97
2022-12-05T04:25:53.518Z,92.03
2022-12-05T04:28:30.726Z,91.86
2022-12-05T04:31:04.674Z,91.64
2022-12-05T04:33:41.447Z,91.83
2022-12-05T04:36:13.378Z,91.84
2022-12-05T04:38:48.883Z,91.38
2022-12-05T04:41:21.958Z,92.13
2022-12-05T04:43:51.414Z,91.68
2022-12-05T04:46:21.966Z,91.80
2022-12-05T04:48:56.014Z,91.72
2022-12-05T04:51:27.217Z,91.63
2022-12-05T04:53:58.270Z,92.70
2022-12-05T04:56:30.053Z,92.36
2022-12-05T04:58:58.201Z,92.79
2022-12-05T05:01:32.709Z,93.02
2022-12-05T05:04:07.937Z,92.53
2022-12-05T05:06:38.184Z,91.94
2022-12-05T05:09:06.003Z,92.84
2022-12-05T05:11:35.577Z,93.26
2022-12-05T05:14:03.858Z,93.35
2022-12-05T05:16:33.674Z,92.66
2022-12-05T05:19:03.193Z,92.94
2022-12-05T05:21:33.370Z,94.13
2022-12-05T05:24:01.127Z,93.21
2022-12-05T05:26:30.615Z,93.38
2022-12-05T05:28:59.082Z,92.78
2022-12-05T05:31:26.954Z,92.91
2022-12-05T05:33:55.847Z,92.93
2022-12-05T05:36:28.058Z,92.28
2022-12-05T05:38:57.736Z,91.29
2022-12-05T05:41:27.137Z,91.70
2022-12-05T05:43:55.753Z,91.86
2022-12-05T05:46:26.187Z,91.91
2022-12-05T05:48:53.881Z,92.64
2022-12-05T05:51:25.642Z,93.00
2022-12-05T05:53:53.233Z,92.93
2022-12-05T05:56:22.269Z,92.31
2022-12-05T05:58:56.392Z,92.38
2022-12-05T06:01:24.262Z,92.64
2022-12-05T06:03:52.060Z,92.47
2022-12-05T06:06:21.198Z,92.57
2022-12-05T06:08:50.250Z,92.43
2022-12-05T06:11:25.434Z,92.72
2022-12-05T06:13:55.312Z,92.13
2022-12-05T06:16:23.245Z,91.69
2022-12-05T06:18:51.046Z,92.04
2022-12-05T06:21:18.714Z,92.44
2022-12-05T06:23:46.814Z,92.81
2022-12-05T06:26:20.335Z,93.02
2022-12-05T06:28:48.274Z,92.51
2022-12-05T06:31:17.461Z,92.19
2022-12-05T06:33:45.696Z,92.70
2022-12-05T06:36:15.872Z,91.85
2022-12-05T06:38:43.934Z,92.24
2022-12-05T06:41:14.848Z,92.46
2022-12-05T06:43:44.209Z,92.10
2022-12-05T06:46:14.097Z,91.52
2022-12-05T06:48:41.771Z,91.36
2022-12-05T06:51:11.183Z,91.43
2022-12-05T06:53:39.317Z,91.45
2022-12-05T06:56:12.438Z,90.95
2022-12-05T06:58:40.192Z,90.63
2022-12-05T07:01:30.905Z,90.02
2022-12-05T07:03:59.017Z,90.04
2022-12-05T07:06:27.513Z,91.09
2022-12-05T07:08:55.863Z,91.21
2022-12-05T07:11:23.469Z,91.19
2022-12-05T07:13:51.143Z,91.42
2022-12-05T07:16:20.109Z,90.69
2022-12-05T07:18:47.748Z,90.04
2022-12-05T07:21:16.921Z,90.67
2022-12-05T07:23:46.564Z,91.08
2022-12-05T07:26:16.016Z,91.40
2022-12-05T07:28:43.619Z,91.33
2022-12-05T07:31:15.088Z,91.76
2022-12-05T07:33:44.145Z,91.61
2022-12-05T07:36:13.718Z,92.02
2022-12-05T07:38:42.553Z,91.22
2022-12-05T07:41:13.640Z,91.84
2022-12-05T07:43:41.771Z,91.49
2022-12-05T07:46:11.779Z,90.99
2022-12-05T07:48:40.388Z,90.98
2022-12-05T07:51:10.769Z,90.73
2022-12-05T07:53:39.274Z,90.85
2022-12-05T07:56:08.880Z,90.97
2022-12-05T07:58:36.919Z,90.57
2022-12-05T08:01:08.734Z,90.27
2022-12-05T08:03:37.310Z,90.28
2022-12-05T08:06:06.235Z,90.70
2022-12-05T08:08:35.378Z,90.63
2022-12-05T08:11:07.554Z,90.64
2022-12-05T08:13:35.794Z,90.42
2022-12-05T08:16:04.260Z,90.34
2022-12-05T08:18:32.358Z,89.82
2022-12-05T08:21:03.242Z,88.39
2022-12-05T08:23:31.859Z,88.02
2022-12-05T08:26:04.172Z,87.25
2022-12-05T08:28:32.602Z,87.95
2022-12-05T08:31:05.397Z,87.93
2022-12-05T08:33:33.121Z,87.26
2022-12-05T08:36:04.914Z,87.80
2022-12-05T08:38:35.062Z,87.87
2022-12-05T08:41:05.855Z,87.93
2022-12-05T08:43:34.180Z,87.62
2022-12-05T08:46:02.800Z,87.67
2022-12-05T08:48:32.410Z,88.39
2022-12-05T08:51:00.927Z,89.01
2022-12-05T08:53:28.530Z,89.22
2022-12-05T08:55:56.063Z,88.57
2022-12-05T08:58:24.988Z,88.40
2022-12-05T09:00:53.331Z,88.69
2022-12-05T09:03:20.957Z,87.92
2022-12-05T09:05:54.552Z,89.19
2022-12-05T09:08:22.510Z,92.62
2022-12-05T09:10:50.429Z,90.86
2022-12-05T09:13:18.088Z,87.06
2022-12-05T09:15:47.098Z,86.34
2022-12-05T09:18:15.207Z,86.30
2022-12-05T09:20:42.831Z,86.37
2022-12-05T09:23:15.750Z,83.94
2022-12-05T09:25:43.737Z,84.42
2022-12-05T09:28:11.317Z,85.05
2022-12-05T09:30:38.986Z,85.81
2022-12-05T09:33:08.013Z,86.75
2022-12-05T09:35:39.984Z,86.83
2022-12-05T09:38:07.588Z,87.92
2022-12-05T09:40:35.201Z,87.56
2022-12-05T09:43:07.721Z,87.63
2022-12-05T09:45:39.558Z,87.85
2022-12-05T09:48:13.327Z,88.86
2022-12-05T09:50:45.682Z,88.79
2022-12-05T09:53:25.394Z,88.06
2022-12-05T09:55:55.912Z,88.98
2022-12-05T09:58:42.916Z,88.81
2022-12-05T10:01:24.124Z,88.14
2022-12-05T10:04:06.823Z,87.81
2022-12-05T10:06:41.528Z,87.99
2022-12-05T10:09:24.827Z,88.52
2022-12-05T10:11:59.616Z,87.94
2022-12-05T10:14:35.716Z,87.24
2022-12-05T10:17:10.397Z,87.01
2022-12-05T10:19:43.798Z,86.86
2022-12-05T10:22:20.424Z,87.00
2022-12-05T10:24:52.787Z,87.50
2022-12-05T10:27:23.043Z,87.87
2022-12-05T10:29:59.022Z,87.42
2022-12-05T10:32:32.764Z,87.63
2022-12-05T10:35:15.046Z,87.55
2022-12-05T10:37:47.275Z,86.87
2022-12-05T10:40:15.581Z,86.85
2022-12-05T10:42:44.259Z,87.18
2022-12-05T10:45:17.144Z,88.03
2022-12-05T10:47:45.024Z,87.10
2022-12-05T10:50:24.019Z,87.80
2022-12-05T10:52:53.637Z,88.64
2022-12-05T10:55:21.485Z,88.67
2022-12-05T10:57:52.840Z,88.19
2022-12-05T11:00:31.516Z,88.66
2022-12-05T11:03:00.395Z,88.86
2022-12-05T11:05:35.159Z,88.29
2022-12-05T11:08:02.885Z,89.14
2022-12-05T11:10:34.721Z,88.40
2022-12-05T11:13:14.742Z,88.44
2022-12-05T11:15:48.460Z,88.42
2022-12-05T11:18:29.405Z,87.79
2022-12-05T11:21:10.451Z,86.65
2022-12-05T11:23:38.067Z,86.29
2022-12-05T11:26:15.785Z,86.49
2022-12-05T11:28:43.411Z,86.88
2022-12-05T11:31:23.399Z,86.43
2022-12-05T11:34:02.779Z,85.99
2022-12-05T11:36:40.603Z,86.33
2022-12-05T11:39:11.581Z,86.56
2022-12-05T11:41:55.106Z,86.61
2022-12-05T11:44:37.039Z,86.66
2022-12-05T11:47:15.482Z,88.00
2022-12-05T11:50:02.712Z,88.11
2022-12-05T11:52:44.052Z,87.87
2022-12-05T11:55:17.734Z,88.33
2022-12-05T11:58:15.566Z,87.72
2022-12-05T12:00:57.625Z,87.50
2022-12-05T12:03:55.291Z,92.52
2022-12-05T12:06:30.455Z,91.18
2022-12-05T12:09:19.535Z,86.95
2022-12-05T12:11:54.741Z,86.21
2022-12-05T12:14:31.863Z,86.47
2022-12-05T12:17:09.758Z,86.58
2022-12-05T12:20:03.455Z,87.58
2022-12-05T12:22:49.385Z,87.86
2022-12-05T12:25:28.904Z,87.61
2022-12-05T12:28:07.974Z,87.85
2022-12-05T12:30:47.908Z,88.31
2022-12-05T12:33:27.210Z,88.36
2022-12-05T12:36:04.536Z,88.50
2022-12-05T12:38:52.336Z,88.31
2022-12-05T12:41:36.058Z,89.27
2022-12-05T12:44:15.269Z,89.51
2022-12-05T12:46:51.361Z,89.66
2022-12-05T12:49:37.044Z,89.53
2022-12-05T12:52:12.320Z,89.59
2022-12-05T12:55:05.069Z,89.30
2022-12-05T12:57:47.665Z,89.34
2022-12-05T13:00:24.883Z,89.55
2022-12-05T13:03:00.286Z,90.18
2022-12-05T13:05:33.999Z,89.46
2022-12-05T13:08:07.820Z,89.36
2022-12-05T13:10:40.597Z,88.49
2022-12-05T13:13:14.501Z,89.12
2022-12-05T13:15:47.737Z,88.77
2022-12-05T13:18:18.033Z,88.65
2022-12-05T13:20:48.938Z,89.00
2022-12-05T13:23:19.577Z,88.53
2022-12-05T13:25:48.752Z,87.92
2022-12-05T13:28:28.633Z,88.53
2022-12-05T13:31:01.802Z,87.96
2022-12-05T13:33:33.583Z,87.81
2022-12-05T13:36:26.801Z,88.69
2022-12-05T13:39:17.474Z,88.56
2022-12-05T13:42:04.770Z,88.02
2022-12-05T13:44:39.115Z,87.69
2022-12-05T13:47:17.041Z,87.85
2022-12-05T13:49:50.480Z,88.59
2022-12-05T13:52:23.244Z,88.49
2022-12-05T13:54:59.416Z,88.91
2022-12-05T13:57:47.432Z,89.32
2022-12-05T14:00:26.181Z,89.49
2022-12-05T14:02:56.403Z,90.22
2022-12-05T14:05:41.575Z,90.46
2022-12-05T14:08:45.993Z,90.25
2022-12-05T14:11:13.813Z,90.21
2022-12-05T14:13:44.931Z,90.64
2022-12-05T14:16:43.942Z,90.30
2022-12-05T14:19:37.831Z,89.64
2022-12-05T14:22:24.338Z,89.80
2022-12-05T14:25:01.411Z,89.16
2022-12-05T14:27:50.449Z,89.88
2022-12-05T14:30:24.821Z,90.10
2022-12-05T14:32:55.207Z,90.50
2022-12-05T14:35:29.858Z,90.68
2022-12-05T14:37:59.788Z,90.34
2022-12-05T14:40:32.686Z,90.72
2022-12-05T14:43:05.684Z,90.95
2022-12-05T14:45:37.022Z,91.80
2022-12-05T14:48:07.327Z,91.96
2022-12-05T14:50:43.407Z,92.31
2022-12-05T14:53:37.453Z,91.71
2022-12-05T14:56:13.957Z,91.66
2022-12-05T14:58:48.200Z,91.15
2022-12-05T15:01:19.811Z,91.80
2022-12-05T15:04:10.208Z,92.39
2022-12-05T15:06:47.875Z,92.81
2022-12-05T15:09:38.754Z,92.86
2022-12-05T15:12:12.343Z,92.85
2022-12-05T15:14:47.946Z,91.86
2022-12-05T15:17:18.986Z,91.92
2022-12-05T15:19:52.426Z,92.46
2022-12-05T15:22:26.549Z,92.81
2022-12-05T15:24:54.197Z,93.01
2022-12-05T15:27:22.119Z,93.35
2022-12-05T15:29:54.153Z,93.61
2022-12-05T15:32:26.676Z,93.51
2022-12-05T15:35:01.006Z,93.16
2022-12-05T15:37:35.546Z,93.27
2022-12-05T15:40:04.945Z,92.66
2022-12-05T15:42:37.792Z,92.40
2022-12-05T15:45:23.826Z,92.98
2022-12-05T15:47:54.943Z,92.57
2022-12-05T15:50:27.892Z,93.21
2022-12-05T15:53:00.225Z,93.04
2022-12-05T15:55:32.123Z,93.49
2022-12-05T15:58:12.620Z,92.77
2022-12-05T16:00:43.500Z,92.37
2022-12-05T16:03:15.064Z,92.47
2022-12-05T16:05:50.305Z,92.82
2022-12-05T16:08:21.744Z,93.08
2022-12-05T16:10:49.877Z,93.67
2022-12-05T16:13:20.655Z,93.96
2022-12-05T16:15:52.947Z,93.65
2022-12-05T16:18:27.960Z,93.71
2022-12-05T16:20:56.365Z,92.87
2022-12-05T16:23:28.421Z,93.49
2022-12-05T16:26:11.620Z,93.94
2022-12-05T16:28:39.609Z,93.81
2022-12-05T16:31:08.123Z,94.18
2022-12-05T16:33:41.809Z,93.17
2022-12-05T16:36:13.059Z,93.36
2022-12-05T16:38:45.083Z,92.99
2022-12-05T16:41:14.909Z,93.60
2022-12-05T16:43:45.054Z,93.74
2022-12-05T16:46:46.849Z,93.31
2022-12-05T16:49:20.398Z,93.68
2022-12-05T16:51:55.748Z,94.20
2022-12-05T16:54:24.670Z,94.07
2022-12-05T16:56:52.572Z,93.72
2022-12-05T16:59:24.316Z,93.67
2022-12-05T17:01:52.151Z,93.96
2022-12-05T17:04:19.845Z,94.26
2022-12-05T17:06:47.460Z,93.66
2022-12-05T17:09:15.096Z,93.28
2022-12-05T17:11:46.331Z,93.31
2022-12-05T17:14:16.167Z,93.66
2022-12-05T17:16:44.245Z,93.93
2022-12-05T17:19:12.383Z,94.37
2022-12-05T17:21:42.967Z,94.87
2022-12-05T17:24:15.798Z,94.36
2022-12-05T17:26:45.072Z,93.97
2022-12-05T17:29:13.172Z,94.16
2022-12-05T17:31:40.865Z,94.25
2022-12-05T17:34:16.674Z,94.08
2022-12-05T17:36:44.736Z,93.64
2022-12-05T17:39:12.311Z,94.04
2022-12-05T17:41:40.131Z,94.14
2022-12-05T17:44:13.758Z,94.31
2022-12-05T17:46:42.954Z,94.63
2022-12-05T17:49:13.823Z,94.07
2022-12-05T17:51:58.868Z,94.11
2022-12-05T17:54:29.369Z,93.82
2022-12-05T17:56:57.181Z,93.15
2022-12-05T17:59:26.091Z,93.35
2022-12-05T18:01:53.739Z,92.92
2022-12-05T18:04:23.517Z,92.86
2022-12-05T18:06:51.534Z,93.02
2022-12-05T18:09:19.681Z,93.17
2022-12-05T18:11:47.296Z,92.79
2022-12-05T18:14:14.901Z,92.85
2022-12-05T18:16:44.030Z,93.14
2022-12-05T18:19:11.703Z,92.53
2022-12-05T18:21:39.433Z,91.68
2022-12-05T18:24:07.404Z,92.09
2022-12-05T18:26:34.992Z,92.43
2022-12-05T18:29:02.692Z,92.10
2022-12-05T18:31:30.879Z,92.26
2022-12-05T18:33:59.917Z,92.82
2022-12-05T18:36:27.664Z,92.71
2022-12-05T18:38:56.733Z,91.97
2022-12-05T18:41:26.529Z,92.40
2022-12-05T18:43:54.764Z,91.86
2022-12-05T18:46:22.532Z,92.11
2022-12-05T18:48:50.284Z,92.43
2022-12-05T18:51:21.675Z,91.93
2022-12-05T18:53:53.035Z,92.49
2022-12-05T18:56:24.337Z,92.28
2022-12-05T18:58:57.476Z,91.89
2022-12-05T19:01:26.217Z,91.65
2022-12-05T19:03:54.329Z,91.72
2022-12-05T19:06:25.857Z,91.16
2022-12-05T19:08:55.481Z,90.92
2022-12-05T19:11:24.142Z,90.84
2022-12-05T19:13:58.524Z,93.12
2022-12-05T19:16:28.413Z,92.87
2022-12-05T19:18:57.959Z,91.67
2022-12-05T19:21:29.528Z,90.56
2022-12-05T19:23:58.435Z,89.53
2022-12-05T19:26:26.962Z,88.99
2022-12-05T19:28:54.914Z,88.78
2022-12-05T19:31:24.768Z,88.11
2022-12-05T19:33:54.226Z,88.59
2022-12-05T19:36:23.682Z,88.37
2022-12-05T19:38:55.542Z,87.62
2022-12-05T19:41:25.952Z,87.40
2022-12-05T19:43:54.548Z,87.03
2022-12-05T19:46:24.997Z,87.70
2022-12-05T19:48:54.186Z,88.31
2022-12-05T19:51:22.153Z,87.62
2022-12-05T19:53:49.965Z,86.98
2022-12-05T19:56:22.064Z,87.09
2022-12-05T19:58:50.658Z,87.23
2022-12-05T20:01:21.013Z,87.14
2022-12-05T20:03:51.106Z,87.68
2022-12-05T20:06:20.098Z,88.15
2022-12-05T20:08:48.688Z,88.17
2022-12-05T20:11:18.349Z,88.60
2022-12-05T20:13:48.101Z,88.58
2022-12-05T20:16:19.610Z,87.69
2022-12-05T20:18:47.447Z,88.43
2022-12-05T20:21:17.092Z,88.56
2022-12-05T20:23:44.963Z,88.79
2022-12-05T20:26:14.646Z,88.52
2022-12-05T20:28:42.884Z,88.17
2022-12-05T20:31:13.501Z,88.31
2022-12-05T20:33:41.466Z,88.53
2022-12-05T20:36:11.182Z,87.81
2022-12-05T20:38:39.211Z,88.44
2022-12-05T20:41:08.765Z,88.30
2022-12-05T20:43:36.689Z,88.85
2022-12-05T20:46:05.462Z,88.61
2022-12-05T20:48:36.600Z,88.15
2022-12-05T20:51:05.676Z,88.36
2022-12-05T20:53:35.383Z,88.96
2022-12-05T20:56:04.869Z,90.02
2022-12-05T20:58:32.802Z,89.63
2022-12-05T21:01:00.828Z,89.34
2022-12-05T21:03:28.772Z,89.08
2022-12-05T21:05:57.909Z,89.19
2022-12-05T21:08:26.230Z,89.17
2022-12-05T21:10:54.218Z,89.09
2022-12-05T21:13:21.822Z,89.16
2022-12-05T21:15:49.538Z,89.00
2022-12-05T21:18:17.117Z,89.64
2022-12-05T21:20:44.765Z,89.60
2022-12-05T21:23:13.829Z,90.31
2022-12-05T21:25:41.877Z,90.08
2022-12-05T21:28:09.380Z,90.37
2022-12-05T21:30:37.155Z,90.89
2022-12-05T21:33:05.881Z,89.45
2022-12-05T21:35:33.428Z,89.13
2022-12-05T21:38:01.608Z,89.38
2022-12-05T21:40:30.651Z,89.49
2022-12-05T21:42:58.296Z,89.83
2022-12-05T21:45:25.836Z,90.77
2022-12-05T21:47:53.758Z,91.17
2022-12-05T21:50:21.465Z,90.31
2022-12-05T21:52:49.046Z,89.72
2022-12-05T21:55:16.765Z,90.30
2022-12-05T21:57:45.777Z,90.66
2022-12-05T22:00:14.276Z,90.66
2022-12-05T22:02:41.908Z,90.37
2022-12-05T22:05:10.555Z,90.51
2022-12-05T22:07:38.292Z,90.98
2022-12-05T22:10:07.627Z,90.67
2022-12-05T22:12:35.679Z,91.48
2022-12-05T22:15:05.815Z,91.25
2022-12-05T22:17:33.494Z,90.71
2022-12-05T22:20:01.459Z,90.84
2022-12-05T22:22:29.325Z,90.71
2022-12-05T22:24:57.107Z,89.91
2022-12-05T22:27:24.922Z,90.22
2022-12-05T22:29:53.048Z,89.85
2022-12-05T22:32:21.994Z,89.67
2022-12-05T22:34:52.798Z,90.49
2022-12-05T22:37:20.431Z,90.18
2022-12-05T22:39:48.036Z,89.74
2022-12-05T22:42:15.659Z,89.71
2022-12-05T22:44:44.716Z,89.84
2022-12-05T22:47:12.414Z,90.51
2022-12-05T22:49:41.447Z,90.96
2022-12-05T22:52:09.007Z,91.13
2022-12-05T22:54:36.683Z,91.34
2022-12-05T22:57:04.500Z,91.62
2022-12-05T22:59:32.182Z,91.47
2022-12-05T23:01:59.945Z,91.79
2022-12-05T23:04:27.664Z,91.77
2022-12-05T23:06:56.840Z,91.31
2022-12-05T23:09:24.897Z,91.35
2022-12-05T23:11:52.558Z,91.62
2022-12-05T23:14:20.520Z,92.29
2022-12-05T23:16:48.826Z,92.33
2022-12-05T23:19:16.594Z,92.45
2022-12-05T23:21:44.276Z,92.84
2022-12-05T23:24:14.005Z,92.40
2022-12-05T23:26:43.865Z,92.10
2022-12-05T23:29:13.084Z,91.84
2022-12-05T23:31:40.899Z,92.02
2022-12-05T23:34:08.998Z,92.63
2022-12-05T23:36:36.826Z,92.35
2022-12-05T23:39:05.065Z,92.33
2022-12-05T23:41:34.438Z,92.55
2022-12-05T23:44:02.551Z,92.87
2022-12-05T23:46:30.626Z,93.02
2022-12-05T23:48:58.452Z,92.98
2022-12-05T23:51:28.512Z,92.53
2022-12-05T23:53:57.874Z,92.89
2022-12-05T23:56:27.087Z,93.04
2022-12-05T23:58:57.300Z,92.35
